sensor_id;sensor_type;location;lat;lon;timestamp;pressure;altitude;pressure_sealevel;temperature;humidity
9035;BME280;4552;43.422;24.592;2023-06-26T00:02:16;99577.25;;;20.62;100.00
9035;BME280;4552;43.422;24.592;2023-06-26T00:11:36;99566.97;;;20.70;100.00
9035;BME280;4552;43.422;24.592;2023-06-26T00:14:03;99583.72;;;20.72;100.00
9035;BME280;4552;43.422;24.592;2023-06-26T00:16:30;99572.31;;;20.70;100.00
9035;BME280;4552;43.422;24.592;2023-06-26T00:18:57;99569.09;;;20.65;100.00
9035;BME280;4552;43.422;24.592;2023-06-26T00:21:38;99579.72;;;20.65;100.00
9035;BME280;4552;43.422;24.592;2023-06-26T00:24:05;99574.69;;;20.60;100.00
9035;BME280;4552;43.422;24.592;2023-06-26T00:26:50;99573.63;;;20.63;100.00
9035;BME280;4552;43.422;24.592;2023-06-26T00:29:17;99577.34;;;20.74;100.00
9035;BME280;4552;43.422;24.592;2023-06-26T00:31:44;99579.72;;;20.79;100.00
9035;BME280;4552;43.422;24.592;2023-06-26T01:15:08;99557.03;;;20.87;100.00
9035;BME280;4552;43.422;24.592;2023-06-26T01:17:54;99540.41;;;20.84;100.00
9035;BME280;4552;43.422;24.592;2023-06-26T01:20:25;99554.09;;;20.92;100.00
9035;BME280;4552;43.422;24.592;2023-06-26T01:23:12;99554.72;;;20.97;100.00
9035;BME280;4552;43.422;24.592;2023-06-26T01:25:51;99554.63;;;20.98;100.00
9035;BME280;4552;43.422;24.592;2023-06-26T01:28:22;99545.97;;;21.09;100.00
9035;BME280;4552;43.422;24.592;2023-06-26T01:30:51;99546.78;;;21.09;100.00
9035;BME280;4552;43.422;24.592;2023-06-26T01:33:24;99542.72;;;21.04;100.00
9035;BME280;4552;43.422;24.592;2023-06-26T02:02:48;99545.19;;;21.07;100.00
9035;BME280;4552;43.422;24.592;2023-06-26T02:05:15;99532.63;;;20.95;100.00
9035;BME280;4552;43.422;24.592;2023-06-26T02:07:42;99544.13;;;21.23;100.00
9035;BME280;4552;43.422;24.592;2023-06-26T02:10:13;99535.94;;;21.12;100.00
9035;BME280;4552;43.422;24.592;2023-06-26T02:12:56;99539.66;;;21.24;100.00
9035;BME280;4552;43.422;24.592;2023-06-26T02:15:23;99538.72;;;21.11;100.00
9035;BME280;4552;43.422;24.592;2023-06-26T02:17:58;99537.09;;;21.08;100.00
9035;BME280;4552;43.422;24.592;2023-06-26T02:47:23;99527.13;;;21.12;100.00
9035;BME280;4552;43.422;24.592;2023-06-26T02:49:50;99529.13;;;21.08;100.00
9035;BME280;4552;43.422;24.592;2023-06-26T02:52:17;99538.81;;;21.09;100.00
9035;BME280;4552;43.422;24.592;2023-06-26T02:54:44;99527.31;;;21.09;100.00
9035;BME280;4552;43.422;24.592;2023-06-26T02:57:12;99527.72;;;21.03;100.00
9035;BME280;4552;43.422;24.592;2023-06-26T02:59:40;99526.47;;;21.08;100.00
9035;BME280;4552;43.422;24.592;2023-06-26T03:02:07;99528.06;;;21.11;100.00
9035;BME280;4552;43.422;24.592;2023-06-26T03:04:35;99529.59;;;21.15;100.00
9035;BME280;4552;43.422;24.592;2023-06-26T03:07:03;99534.13;;;21.27;100.00
9035;BME280;4552;43.422;24.592;2023-06-26T03:09:47;99542.13;;;21.41;100.00
9035;BME280;4552;43.422;24.592;2023-06-26T03:12:28;99534.53;;;21.61;100.00
9035;BME280;4552;43.422;24.592;2023-06-26T03:14:55;99534.03;;;21.42;100.00
9035;BME280;4552;43.422;24.592;2023-06-26T03:17:22;99531.84;;;21.35;100.00
9035;BME280;4552;43.422;24.592;2023-06-26T03:20:10;99536.38;;;21.47;100.00
9035;BME280;4552;43.422;24.592;2023-06-26T03:22:37;99539.47;;;21.67;100.00
9035;BME280;4552;43.422;24.592;2023-06-26T03:25:05;99539.25;;;21.70;100.00
9035;BME280;4552;43.422;24.592;2023-06-26T03:27:37;99540.81;;;21.60;100.00
9035;BME280;4552;43.422;24.592;2023-06-26T03:30:04;99543.72;;;21.43;100.00
9035;BME280;4552;43.422;24.592;2023-06-26T03:32:31;99542.69;;;21.32;100.00
9035;BME280;4552;43.422;24.592;2023-06-26T03:34:58;99536.91;;;21.25;100.00
9035;BME280;4552;43.422;24.592;2023-06-26T03:37:29;99548.75;;;21.34;100.00
9035;BME280;4552;43.422;24.592;2023-06-26T03:40:10;99547.06;;;21.33;100.00
9035;BME280;4552;43.422;24.592;2023-06-26T03:42:37;99542.91;;;21.29;100.00
9035;BME280;4552;43.422;24.592;2023-06-26T03:45:05;99560.00;;;21.39;100.00
9035;BME280;4552;43.422;24.592;2023-06-26T03:47:33;99543.44;;;21.34;100.00
9035;BME280;4552;43.422;24.592;2023-06-26T03:49:59;99553.34;;;21.32;100.00
9035;BME280;4552;43.422;24.592;2023-06-26T03:52:26;99549.53;;;21.36;100.00
9035;BME280;4552;43.422;24.592;2023-06-26T03:54:57;99543.72;;;21.29;100.00
9035;BME280;4552;43.422;24.592;2023-06-26T03:57:26;99551.03;;;21.40;100.00
9035;BME280;4552;43.422;24.592;2023-06-26T03:59:53;99553.59;;;21.41;100.00
9035;BME280;4552;43.422;24.592;2023-06-26T04:02:20;99551.03;;;21.40;100.00
9035;BME280;4552;43.422;24.592;2023-06-26T04:04:49;99547.75;;;21.22;100.00
9035;BME280;4552;43.422;24.592;2023-06-26T04:07:17;99550.69;;;21.18;100.00
9035;BME280;4552;43.422;24.592;2023-06-26T04:09:45;99546.69;;;21.11;100.00
9035;BME280;4552;43.422;24.592;2023-06-26T04:12:15;99552.97;;;21.10;100.00
9035;BME280;4552;43.422;24.592;2023-06-26T04:14:41;99554.28;;;21.17;100.00
9035;BME280;4552;43.422;24.592;2023-06-26T04:17:08;99557.13;;;21.28;100.00
9035;BME280;4552;43.422;24.592;2023-06-26T04:19:35;99558.41;;;21.22;100.00
9035;BME280;4552;43.422;24.592;2023-06-26T04:22:08;99563.91;;;21.19;100.00
9035;BME280;4552;43.422;24.592;2023-06-26T04:24:35;99555.84;;;21.21;100.00
9035;BME280;4552;43.422;24.592;2023-06-26T04:27:04;99562.22;;;21.18;100.00
9035;BME280;4552;43.422;24.592;2023-06-26T04:29:36;99566.38;;;21.08;100.00
9035;BME280;4552;43.422;24.592;2023-06-26T04:32:04;99567.44;;;21.06;100.00
9035;BME280;4552;43.422;24.592;2023-06-26T04:34:45;99565.53;;;21.08;100.00
9035;BME280;4552;43.422;24.592;2023-06-26T04:37:13;99566.09;;;21.13;100.00
9035;BME280;4552;43.422;24.592;2023-06-26T04:39:50;99570.47;;;21.14;100.00
9035;BME280;4552;43.422;24.592;2023-06-26T04:42:17;99564.31;;;21.13;100.00
9035;BME280;4552;43.422;24.592;2023-06-26T04:44:51;99564.09;;;21.02;100.00
9035;BME280;4552;43.422;24.592;2023-06-26T04:47:32;99572.19;;;21.01;100.00
9035;BME280;4552;43.422;24.592;2023-06-26T07:04:59;99615.38;;;24.28;100.00
9035;BME280;4552;43.422;24.592;2023-06-26T07:07:29;99608.41;;;24.26;100.00
9035;BME280;4552;43.422;24.592;2023-06-26T07:09:57;99620.53;;;24.66;100.00
9035;BME280;4552;43.422;24.592;2023-06-26T07:12:24;99616.44;;;24.26;100.00
9035;BME280;4552;43.422;24.592;2023-06-26T07:14:51;99616.47;;;24.02;100.00
9035;BME280;4552;43.422;24.592;2023-06-26T07:17:20;99613.97;;;23.63;100.00
9035;BME280;4552;43.422;24.592;2023-06-26T09:40:13;99616.19;;;25.77;88.03
9035;BME280;4552;43.422;24.592;2023-06-26T09:42:43;99600.97;;;25.55;90.69
9035;BME280;4552;43.422;24.592;2023-06-26T09:45:18;99611.59;;;26.21;89.85
9035;BME280;4552;43.422;24.592;2023-06-26T09:47:45;99609.00;;;26.31;86.91
9035;BME280;4552;43.422;24.592;2023-06-26T10:10:25;99599.94;;;26.74;80.21
9035;BME280;4552;43.422;24.592;2023-06-26T10:12:57;99597.78;;;26.57;80.16
9035;BME280;4552;43.422;24.592;2023-06-26T10:15:29;99588.78;;;26.47;82.65
9035;BME280;4552;43.422;24.592;2023-06-26T10:25:18;99581.69;;;26.98;79.55
9035;BME280;4552;43.422;24.592;2023-06-26T10:27:52;99585.94;;;27.52;78.54
9035;BME280;4552;43.422;24.592;2023-06-26T10:30:23;99576.06;;;27.01;74.82
9035;BME280;4552;43.422;24.592;2023-06-26T10:32:54;99581.09;;;26.95;75.98
9035;BME280;4552;43.422;24.592;2023-06-26T10:46:25;99571.53;;;26.09;80.09
9035;BME280;4552;43.422;24.592;2023-06-26T10:48:58;99561.81;;;25.75;85.59
9035;BME280;4552;43.422;24.592;2023-06-26T10:51:26;99555.50;;;25.31;90.22
9035;BME280;4552;43.422;24.592;2023-06-26T10:54:00;99554.50;;;24.77;93.57
9035;BME280;4552;43.422;24.592;2023-06-26T10:56:46;99565.31;;;24.41;98.50
9035;BME280;4552;43.422;24.592;2023-06-26T10:59:15;99569.72;;;24.19;100.00
9035;BME280;4552;43.422;24.592;2023-06-26T11:01:44;99575.59;;;23.87;100.00
9035;BME280;4552;43.422;24.592;2023-06-26T11:04:13;99578.00;;;23.43;100.00
9035;BME280;4552;43.422;24.592;2023-06-26T11:06:45;99584.94;;;23.08;100.00
9035;BME280;4552;43.422;24.592;2023-06-26T11:09:17;99580.56;;;22.82;100.00
9035;BME280;4552;43.422;24.592;2023-06-26T11:11:58;99572.66;;;22.68;100.00
9035;BME280;4552;43.422;24.592;2023-06-26T11:14:27;99580.34;;;22.73;100.00
9035;BME280;4552;43.422;24.592;2023-06-26T11:16:59;99593.06;;;22.69;100.00
9035;BME280;4552;43.422;24.592;2023-06-26T11:19:28;99583.22;;;22.70;100.00
9035;BME280;4552;43.422;24.592;2023-06-26T11:22:01;99590.69;;;22.52;100.00
9035;BME280;4552;43.422;24.592;2023-06-26T11:24:29;99596.56;;;22.57;100.00
9035;BME280;4552;43.422;24.592;2023-06-26T11:27:04;99592.22;;;22.42;100.00
9035;BME280;4552;43.422;24.592;2023-06-26T11:29:33;99600.31;;;22.41;100.00
9035;BME280;4552;43.422;24.592;2023-06-26T11:32:03;99588.94;;;22.12;100.00
9035;BME280;4552;43.422;24.592;2023-06-26T11:34:32;99591.66;;;21.98;100.00
9035;BME280;4552;43.422;24.592;2023-06-26T11:37:00;99588.84;;;21.87;100.00
9035;BME280;4552;43.422;24.592;2023-06-26T11:39:29;99586.53;;;21.95;100.00
9035;BME280;4552;43.422;24.592;2023-06-26T11:41:56;99591.03;;;22.07;100.00
9035;BME280;4552;43.422;24.592;2023-06-26T14:38:14;99558.16;;;26.18;96.78
9035;BME280;4552;43.422;24.592;2023-06-26T14:40:41;99561.50;;;26.42;96.08
9035;BME280;4552;43.422;24.592;2023-06-26T14:43:08;99546.22;;;26.22;96.61
9035;BME280;4552;43.422;24.592;2023-06-26T14:45:35;99549.81;;;26.32;92.04
9035;BME280;4552;43.422;24.592;2023-06-26T14:48:02;99553.31;;;26.12;84.46
9035;BME280;4552;43.422;24.592;2023-06-26T14:50:29;99554.91;;;26.35;85.83
9035;BME280;4552;43.422;24.592;2023-06-26T14:52:58;99542.44;;;26.45;88.54
9035;BME280;4552;43.422;24.592;2023-06-26T14:55:27;99549.44;;;26.98;87.77
9035;BME280;4552;43.422;24.592;2023-06-26T14:57:54;99545.09;;;26.77;87.90
9035;BME280;4552;43.422;24.592;2023-06-26T15:00:21;99536.00;;;26.68;88.62
9035;BME280;4552;43.422;24.592;2023-06-26T15:02:48;99541.50;;;26.67;90.51
9035;BME280;4552;43.422;24.592;2023-06-26T15:05:18;99536.88;;;26.78;90.75
9035;BME280;4552;43.422;24.592;2023-06-26T15:07:46;99547.09;;;26.84;88.67
9035;BME280;4552;43.422;24.592;2023-06-26T15:10:13;99549.59;;;26.97;86.84
9035;BME280;4552;43.422;24.592;2023-06-26T15:12:43;99529.19;;;26.94;85.45
9035;BME280;4552;43.422;24.592;2023-06-26T15:15:10;99537.78;;;26.88;85.18
9035;BME280;4552;43.422;24.592;2023-06-26T15:17:38;99535.72;;;26.71;85.62
9035;BME280;4552;43.422;24.592;2023-06-26T15:20:06;99543.41;;;26.85;83.66
9035;BME280;4552;43.422;24.592;2023-06-26T15:22:33;99543.38;;;26.76;84.89
9035;BME280;4552;43.422;24.592;2023-06-26T15:25:00;99541.47;;;26.87;83.46
9035;BME280;4552;43.422;24.592;2023-06-26T15:27:28;99536.41;;;26.53;83.82
9035;BME280;4552;43.422;24.592;2023-06-26T15:30:04;99542.53;;;26.75;84.48
9035;BME280;4552;43.422;24.592;2023-06-26T15:32:32;99535.16;;;26.98;85.03
9035;BME280;4552;43.422;24.592;2023-06-26T15:35:00;99544.41;;;27.05;85.20
9035;BME280;4552;43.422;24.592;2023-06-26T15:37:33;99546.91;;;26.97;83.99
